Terminal Aerodrome Forecast
Issued by NWS

Home | Current Version | Previous Version | Text Only | Print | Product List | Glossary On
Versions: 1 2 3 4 5 6 7 8 9 10 11 12 13 14 15 16 17
000
FTUS41 KBGM 072334
TAFELM
TAF
KELM 072334Z 0800/0824 22008KT P6SM -SHRA SCT040 BKN070
      TEMPO 0800/0804 3SM SHRA OVC040
     FM080600 27006KT 5SM BR OVC025
     FM080800 30005KT P6SM OVC015
     FM081400 31008KT P6SM SCT035=

USA.gov is the U.S. government's official web portal to all federal, state and local government web resources and services.